sensor_id;sensor_type;location;lat;lon;timestamp;pressure;altitude;pressure_sealevel;temperature
48003;BMP280;33768;48.578;11.574;2023-02-28T00:02:06;97004.53;;;-1.48
48003;BMP280;33768;48.578;11.574;2023-02-28T00:05:14;97002.28;;;-1.49
48003;BMP280;33768;48.578;11.574;2023-02-28T00:08:18;96998.25;;;-1.54
48003;BMP280;33768;48.578;11.574;2023-02-28T00:11:22;97001.66;;;-1.53
48003;BMP280;33768;48.578;11.574;2023-02-28T00:14:26;96994.81;;;-1.54
48003;BMP280;33768;48.578;11.574;2023-02-28T00:17:31;96990.78;;;-1.58
48003;BMP280;33768;48.578;11.574;2023-02-28T00:20:35;96993.13;;;-1.60
48003;BMP280;33768;48.578;11.574;2023-02-28T00:23:39;96976.75;;;-1.62
48003;BMP280;33768;48.578;11.574;2023-02-28T00:26:43;96991.59;;;-1.61
48003;BMP280;33768;48.578;11.574;2023-02-28T00:29:47;96982.97;;;-1.65
48003;BMP280;33768;48.578;11.574;2023-02-28T00:32:51;96979.34;;;-1.71
48003;BMP280;33768;48.578;11.574;2023-02-28T00:36:03;96983.19;;;-1.72
48003;BMP280;33768;48.578;11.574;2023-02-28T00:39:07;96974.41;;;-1.73
48003;BMP280;33768;48.578;11.574;2023-02-28T00:42:11;96984.06;;;-1.75
48003;BMP280;33768;48.578;11.574;2023-02-28T00:45:15;96974.22;;;-1.78
48003;BMP280;33768;48.578;11.574;2023-02-28T00:48:19;96975.94;;;-1.84
48003;BMP280;33768;48.578;11.574;2023-02-28T00:51:24;96968.03;;;-1.88
48003;BMP280;33768;48.578;11.574;2023-02-28T00:54:28;96980.78;;;-1.91
48003;BMP280;33768;48.578;11.574;2023-02-28T00:57:33;96982.69;;;-1.92
48003;BMP280;33768;48.578;11.574;2023-02-28T01:00:42;96981.63;;;-1.94
48003;BMP280;33768;48.578;11.574;2023-02-28T01:03:49;96967.19;;;-1.97
48003;BMP280;33768;48.578;11.574;2023-02-28T01:06:53;96971.47;;;-1.99
48003;BMP280;33768;48.578;11.574;2023-02-28T01:09:57;96966.97;;;-2.02
48003;BMP280;33768;48.578;11.574;2023-02-28T01:13:03;96973.50;;;-2.03
48003;BMP280;33768;48.578;11.574;2023-02-28T01:16:07;96965.91;;;-2.05
48003;BMP280;33768;48.578;11.574;2023-02-28T01:19:12;96951.91;;;-2.09
48003;BMP280;33768;48.578;11.574;2023-02-28T01:22:16;96961.09;;;-2.10
48003;BMP280;33768;48.578;11.574;2023-02-28T01:25:21;96959.63;;;-2.11
48003;BMP280;33768;48.578;11.574;2023-02-28T01:28:26;96962.41;;;-2.14
48003;BMP280;33768;48.578;11.574;2023-02-28T01:31:30;96964.31;;;-2.15
48003;BMP280;33768;48.578;11.574;2023-02-28T01:34:34;96957.59;;;-2.19
48003;BMP280;33768;48.578;11.574;2023-02-28T01:37:41;96956.81;;;-2.19
48003;BMP280;33768;48.578;11.574;2023-02-28T01:40:45;96948.94;;;-2.23
48003;BMP280;33768;48.578;11.574;2023-02-28T01:46:53;96958.88;;;-2.23
48003;BMP280;33768;48.578;11.574;2023-02-28T01:49:58;96952.47;;;-2.26
48003;BMP280;33768;48.578;11.574;2023-02-28T01:53:06;96952.47;;;-2.26
48003;BMP280;33768;48.578;11.574;2023-02-28T01:56:13;96955.03;;;-2.22
48003;BMP280;33768;48.578;11.574;2023-02-28T01:59:43;96950.53;;;-2.25
48003;BMP280;33768;48.578;11.574;2023-02-28T02:02:54;96953.94;;;-2.25
48003;BMP280;33768;48.578;11.574;2023-02-28T02:05:59;96952.03;;;-2.24
48003;BMP280;33768;48.578;11.574;2023-02-28T02:09:04;96958.03;;;-2.20
48003;BMP280;33768;48.578;11.574;2023-02-28T02:12:22;96958.75;;;-2.20
48003;BMP280;33768;48.578;11.574;2023-02-28T02:15:40;96957.91;;;-2.17
48003;BMP280;33768;48.578;11.574;2023-02-28T02:18:53;96949.03;;;-2.14
48003;BMP280;33768;48.578;11.574;2023-02-28T02:25:45;96950.09;;;-2.12
48003;BMP280;33768;48.578;11.574;2023-02-28T02:38:40;96948.91;;;-2.11
48003;BMP280;33768;48.578;11.574;2023-02-28T02:41:54;96948.91;;;-2.11
48003;BMP280;33768;48.578;11.574;2023-02-28T02:45:03;96950.94;;;-2.15
48003;BMP280;33768;48.578;11.574;2023-02-28T02:48:11;96954.47;;;-2.18
48003;BMP280;33768;48.578;11.574;2023-02-28T02:51:18;96944.53;;;-2.17
48003;BMP280;33768;48.578;11.574;2023-02-28T02:54:37;96952.53;;;-2.17
48003;BMP280;33768;48.578;11.574;2023-02-28T02:57:53;96947.97;;;-2.17
48003;BMP280;33768;48.578;11.574;2023-02-28T03:01:01;96955.22;;;-2.17
48003;BMP280;33768;48.578;11.574;2023-02-28T03:04:13;96953.00;;;-2.18
48003;BMP280;33768;48.578;11.574;2023-02-28T03:07:18;96950.75;;;-2.20
48003;BMP280;33768;48.578;11.574;2023-02-28T03:10:33;96950.53;;;-2.25
48003;BMP280;33768;48.578;11.574;2023-02-28T03:17:21;96939.09;;;-2.38
48003;BMP280;33768;48.578;11.574;2023-02-28T03:20:37;96951.81;;;-2.42
48003;BMP280;33768;48.578;11.574;2023-02-28T03:23:50;96944.03;;;-2.49
48003;BMP280;33768;48.578;11.574;2023-02-28T03:27:11;96949.91;;;-2.54
48003;BMP280;33768;48.578;11.574;2023-02-28T03:30:51;96940.91;;;-2.60
48003;BMP280;33768;48.578;11.574;2023-02-28T03:34:10;96951.72;;;-2.63
48003;BMP280;33768;48.578;11.574;2023-02-28T03:37:19;96953.44;;;-2.69
48003;BMP280;33768;48.578;11.574;2023-02-28T03:40:30;96948.91;;;-2.72
48003;BMP280;33768;48.578;11.574;2023-02-28T03:43:59;96949.91;;;-2.79
48003;BMP280;33768;48.578;11.574;2023-02-28T03:47:35;96952.56;;;-2.79
48003;BMP280;33768;48.578;11.574;2023-02-28T03:50:43;96941.13;;;-2.79
48003;BMP280;33768;48.578;11.574;2023-02-28T03:53:55;96953.41;;;-2.81
48003;BMP280;33768;48.578;11.574;2023-02-28T03:57:12;96945.94;;;-2.86
48003;BMP280;33768;48.578;11.574;2023-02-28T04:00:21;96953.63;;;-2.88
48003;BMP280;33768;48.578;11.574;2023-02-28T04:03:29;96958.97;;;-2.88
48003;BMP280;33768;48.578;11.574;2023-02-28T04:06:34;96952.44;;;-2.87
48003;BMP280;33768;48.578;11.574;2023-02-28T04:09:38;96955.63;;;-2.92
48003;BMP280;33768;48.578;11.574;2023-02-28T04:12:42;96958.75;;;-2.94
48003;BMP280;33768;48.578;11.574;2023-02-28T04:15:46;96969.44;;;-2.94
48003;BMP280;33768;48.578;11.574;2023-02-28T04:18:50;96969.84;;;-2.95
48003;BMP280;33768;48.578;11.574;2023-02-28T04:21:55;96977.56;;;-2.97
48003;BMP280;33768;48.578;11.574;2023-02-28T04:24:59;96979.44;;;-2.98
48003;BMP280;33768;48.578;11.574;2023-02-28T04:28:03;96971.88;;;-2.99
48003;BMP280;33768;48.578;11.574;2023-02-28T04:31:08;96976.47;;;-3.00
48003;BMP280;33768;48.578;11.574;2023-02-28T04:34:13;96974.22;;;-3.01
48003;BMP280;33768;48.578;11.574;2023-02-28T04:37:17;96973.88;;;-3.03
48003;BMP280;33768;48.578;11.574;2023-02-28T04:40:21;96973.03;;;-3.00
48003;BMP280;33768;48.578;11.574;2023-02-28T04:43:27;96971.22;;;-3.03
48003;BMP280;33768;48.578;11.574;2023-02-28T04:46:31;96976.56;;;-3.03
48003;BMP280;33768;48.578;11.574;2023-02-28T04:49:35;96980.50;;;-3.08
48003;BMP280;33768;48.578;11.574;2023-02-28T04:52:40;96976.75;;;-3.10
48003;BMP280;33768;48.578;11.574;2023-02-28T04:55:44;96977.06;;;-3.08
48003;BMP280;33768;48.578;11.574;2023-02-28T04:58:49;96982.41;;;-3.08
48003;BMP280;33768;48.578;11.574;2023-02-28T05:01:54;96979.75;;;-3.08
48003;BMP280;33768;48.578;11.574;2023-02-28T05:04:58;96982.88;;;-3.10
48003;BMP280;33768;48.578;11.574;2023-02-28T05:08:03;96976.44;;;-3.12
48003;BMP280;33768;48.578;11.574;2023-02-28T05:11:14;96982.19;;;-3.13
48003;BMP280;33768;48.578;11.574;2023-02-28T05:14:19;96988.28;;;-3.13
48003;BMP280;33768;48.578;11.574;2023-02-28T05:17:23;96983.38;;;-3.14
48003;BMP280;33768;48.578;11.574;2023-02-28T05:20:27;96984.13;;;-3.14
48003;BMP280;33768;48.578;11.574;2023-02-28T05:23:32;96991.41;;;-3.14
48003;BMP280;33768;48.578;11.574;2023-02-28T05:26:39;96997.47;;;-3.14
48003;BMP280;33768;48.578;11.574;2023-02-28T05:29:44;96998.97;;;-3.13
48003;BMP280;33768;48.578;11.574;2023-02-28T05:32:50;96991.81;;;-3.16
48003;BMP280;33768;48.578;11.574;2023-02-28T05:35:55;96998.97;;;-3.13
48003;BMP280;33768;48.578;11.574;2023-02-28T05:38:59;97000.56;;;-3.15
48003;BMP280;33768;48.578;11.574;2023-02-28T05:42:04;97006.69;;;-3.15
48003;BMP280;33768;48.578;11.574;2023-02-28T05:45:09;97002.81;;;-3.14
48003;BMP280;33768;48.578;11.574;2023-02-28T05:48:14;96996.00;;;-3.15
48003;BMP280;33768;48.578;11.574;2023-02-28T05:51:43;97002.16;;;-3.18
48003;BMP280;33768;48.578;11.574;2023-02-28T05:54:48;97001.41;;;-3.18
48003;BMP280;33768;48.578;11.574;2023-02-28T05:57:52;97005.34;;;-3.23
48003;BMP280;33768;48.578;11.574;2023-02-28T06:01:01;97006.84;;;-3.22
48003;BMP280;33768;48.578;11.574;2023-02-28T06:04:22;97009.84;;;-3.20
48003;BMP280;33768;48.578;11.574;2023-02-28T06:07:26;97013.69;;;-3.21
48003;BMP280;33768;48.578;11.574;2023-02-28T06:10:30;97017.34;;;-3.15
48003;BMP280;33768;48.578;11.574;2023-02-28T06:13:34;97013.50;;;-3.14
48003;BMP280;33768;48.578;11.574;2023-02-28T06:16:39;97022.69;;;-3.15
48003;BMP280;33768;48.578;11.574;2023-02-28T06:19:43;97021.91;;;-3.15
48003;BMP280;33768;48.578;11.574;2023-02-28T06:22:47;97021.19;;;-3.16
48003;BMP280;33768;48.578;11.574;2023-02-28T06:25:51;97024.22;;;-3.02
48003;BMP280;33768;48.578;11.574;2023-02-28T06:28:56;97018.63;;;-2.79
48003;BMP280;33768;48.578;11.574;2023-02-28T06:32:01;97018.75;;;-2.58
48003;BMP280;33768;48.578;11.574;2023-02-28T06:35:05;97025.59;;;-2.45
48003;BMP280;33768;48.578;11.574;2023-02-28T06:38:09;97035.16;;;-2.31
48003;BMP280;33768;48.578;11.574;2023-02-28T06:41:14;97028.72;;;-2.09
48003;BMP280;33768;48.578;11.574;2023-02-28T06:44:18;97040.34;;;-1.66
48003;BMP280;33768;48.578;11.574;2023-02-28T06:47:23;97030.25;;;-1.50
48003;BMP280;33768;48.578;11.574;2023-02-28T06:50:30;97040.16;;;-1.26
48003;BMP280;33768;48.578;11.574;2023-02-28T06:57:39;97038.41;;;-1.54
48003;BMP280;33768;48.578;11.574;2023-02-28T07:00:45;97040.88;;;-1.59
48003;BMP280;33768;48.578;11.574;2023-02-28T07:03:49;97040.56;;;-1.61
48003;BMP280;33768;48.578;11.574;2023-02-28T07:06:56;97033.50;;;-1.67
48003;BMP280;33768;48.578;11.574;2023-02-28T07:10:00;97052.16;;;-1.76
48003;BMP280;33768;48.578;11.574;2023-02-28T07:13:06;97030.09;;;-1.80
48003;BMP280;33768;48.578;11.574;2023-02-28T07:16:11;97038.97;;;-1.71
48003;BMP280;33768;48.578;11.574;2023-02-28T07:19:15;97042.69;;;-1.56
48003;BMP280;33768;48.578;11.574;2023-02-28T07:22:19;97044.16;;;-1.43
48003;BMP280;33768;48.578;11.574;2023-02-28T07:25:25;97045.31;;;-1.44
48003;BMP280;33768;48.578;11.574;2023-02-28T07:28:29;97049.84;;;-1.41
48003;BMP280;33768;48.578;11.574;2023-02-28T07:31:33;97043.59;;;-1.25
48003;BMP280;33768;48.578;11.574;2023-02-28T07:34:37;97038.75;;;-1.18
48003;BMP280;33768;48.578;11.574;2023-02-28T07:37:42;97046.28;;;-1.04
48003;BMP280;33768;48.578;11.574;2023-02-28T07:40:46;97047.97;;;-0.98
48003;BMP280;33768;48.578;11.574;2023-02-28T07:43:53;97056.31;;;-0.96
48003;BMP280;33768;48.578;11.574;2023-02-28T07:46:58;97046.59;;;-0.81
48003;BMP280;33768;48.578;11.574;2023-02-28T07:50:03;97051.41;;;-0.55
48003;BMP280;33768;48.578;11.574;2023-02-28T07:53:07;97070.94;;;-0.25
48003;BMP280;33768;48.578;11.574;2023-02-28T07:56:11;97060.56;;;-0.14
48003;BMP280;33768;48.578;11.574;2023-02-28T07:59:15;97058.84;;;0.01
48003;BMP280;33768;48.578;11.574;2023-02-28T08:02:19;97059.50;;;0.14
48003;BMP280;33768;48.578;11.574;2023-02-28T08:05:23;97060.28;;;0.32
48003;BMP280;33768;48.578;11.574;2023-02-28T08:08:28;97055.06;;;0.37
48003;BMP280;33768;48.578;11.574;2023-02-28T08:11:34;97062.22;;;0.31
48003;BMP280;33768;48.578;11.574;2023-02-28T08:14:40;97060.03;;;0.48
48003;BMP280;33768;48.578;11.574;2023-02-28T08:17:44;97064.84;;;0.62
48003;BMP280;33768;48.578;11.574;2023-02-28T08:20:48;97050.22;;;0.80
48003;BMP280;33768;48.578;11.574;2023-02-28T08:23:52;97043.53;;;0.76
48003;BMP280;33768;48.578;11.574;2023-02-28T08:26:56;97049.16;;;0.60
48003;BMP280;33768;48.578;11.574;2023-02-28T08:30:02;97052.47;;;0.73
48003;BMP280;33768;48.578;11.574;2023-02-28T08:33:16;97062.19;;;1.06
48003;BMP280;33768;48.578;11.574;2023-02-28T08:36:28;97056.22;;;1.11
48003;BMP280;33768;48.578;11.574;2023-02-28T08:39:36;97062.50;;;1.34
48003;BMP280;33768;48.578;11.574;2023-02-28T08:42:40;97046.78;;;1.51
48003;BMP280;33768;48.578;11.574;2023-02-28T08:45:44;97049.78;;;1.44
48003;BMP280;33768;48.578;11.574;2023-02-28T08:48:52;97055.88;;;1.53
48003;BMP280;33768;48.578;11.574;2023-02-28T08:51:56;97064.41;;;1.69
48003;BMP280;33768;48.578;11.574;2023-02-28T08:55:01;97066.31;;;1.69
48003;BMP280;33768;48.578;11.574;2023-02-28T08:58:05;97062.75;;;1.72
48003;BMP280;33768;48.578;11.574;2023-02-28T09:01:10;97071.22;;;2.29
48003;BMP280;33768;48.578;11.574;2023-02-28T09:04:15;97065.00;;;2.46
48003;BMP280;33768;48.578;11.574;2023-02-28T09:07:19;97072.22;;;2.40
48003;BMP280;33768;48.578;11.574;2023-02-28T09:10:23;97074.84;;;2.49
48003;BMP280;33768;48.578;11.574;2023-02-28T09:13:29;97081.63;;;2.45
48003;BMP280;33768;48.578;11.574;2023-02-28T09:16:34;97076.28;;;2.59
48003;BMP280;33768;48.578;11.574;2023-02-28T09:19:38;97085.44;;;2.84
48003;BMP280;33768;48.578;11.574;2023-02-28T09:22:42;97072.56;;;2.79
48003;BMP280;33768;48.578;11.574;2023-02-28T09:25:55;97079.41;;;2.89
48003;BMP280;33768;48.578;11.574;2023-02-28T09:29:00;97076.38;;;2.96
48003;BMP280;33768;48.578;11.574;2023-02-28T09:32:06;97079.03;;;3.05
48003;BMP280;33768;48.578;11.574;2023-02-28T09:35:10;97076.63;;;3.21
48003;BMP280;33768;48.578;11.574;2023-02-28T09:38:18;97078.25;;;3.05
48003;BMP280;33768;48.578;11.574;2023-02-28T09:41:25;97080.16;;;3.13
48003;BMP280;33768;48.578;11.574;2023-02-28T09:44:36;97071.91;;;2.93
48003;BMP280;33768;48.578;11.574;2023-02-28T09:47:43;97078.75;;;3.41
48003;BMP280;33768;48.578;11.574;2023-02-28T09:50:56;97088.41;;;3.47
48003;BMP280;33768;48.578;11.574;2023-02-28T09:54:02;97080.59;;;3.49
48003;BMP280;33768;48.578;11.574;2023-02-28T09:57:19;97074.84;;;3.84
48003;BMP280;33768;48.578;11.574;2023-02-28T10:00:36;97078.75;;;3.69
48003;BMP280;33768;48.578;11.574;2023-02-28T10:03:47;97081.78;;;3.34
48003;BMP280;33768;48.578;11.574;2023-02-28T10:06:53;97087.09;;;3.28
48003;BMP280;33768;48.578;11.574;2023-02-28T10:10:02;97087.03;;;3.14
48003;BMP280;33768;48.578;11.574;2023-02-28T10:13:20;97086.94;;;3.09
48003;BMP280;33768;48.578;11.574;2023-02-28T10:16:33;97096.41;;;3.42
48003;BMP280;33768;48.578;11.574;2023-02-28T10:20:07;97090.84;;;3.59
48003;BMP280;33768;48.578;11.574;2023-02-28T10:23:19;97089.19;;;4.04
48003;BMP280;33768;48.578;11.574;2023-02-28T10:26:26;97099.91;;;4.13
48003;BMP280;33768;48.578;11.574;2023-02-28T10:29:32;97090.19;;;4.35
48003;BMP280;33768;48.578;11.574;2023-02-28T10:32:38;97096.81;;;4.20
48003;BMP280;33768;48.578;11.574;2023-02-28T10:35:42;97098.03;;;4.05
48003;BMP280;33768;48.578;11.574;2023-02-28T10:38:47;97084.53;;;4.34
48003;BMP280;33768;48.578;11.574;2023-02-28T10:41:51;97084.81;;;4.69
48003;BMP280;33768;48.578;11.574;2023-02-28T10:45:16;97088.78;;;4.40
48003;BMP280;33768;48.578;11.574;2023-02-28T10:51:24;97096.03;;;4.82
48003;BMP280;33768;48.578;11.574;2023-02-28T10:54:33;97089.94;;;5.66
48003;BMP280;33768;48.578;11.574;2023-02-28T10:57:38;97091.66;;;5.44
48003;BMP280;33768;48.578;11.574;2023-02-28T11:00:43;97087.69;;;5.84
48003;BMP280;33768;48.578;11.574;2023-02-28T11:03:48;97076.41;;;6.16
48003;BMP280;33768;48.578;11.574;2023-02-28T11:07:01;97067.34;;;6.24
48003;BMP280;33768;48.578;11.574;2023-02-28T11:10:06;97093.78;;;6.04
48003;BMP280;33768;48.578;11.574;2023-02-28T11:13:17;97097.00;;;5.78
48003;BMP280;33768;48.578;11.574;2023-02-28T11:16:32;97087.69;;;5.00
48003;BMP280;33768;48.578;11.574;2023-02-28T11:19:44;97100.38;;;4.74
48003;BMP280;33768;48.578;11.574;2023-02-28T11:22:50;97093.69;;;4.90
48003;BMP280;33768;48.578;11.574;2023-02-28T11:25:58;97093.72;;;5.09
48003;BMP280;33768;48.578;11.574;2023-02-28T11:29:19;97086.44;;;5.01
48003;BMP280;33768;48.578;11.574;2023-02-28T11:32:25;97090.69;;;4.68
48003;BMP280;33768;48.578;11.574;2023-02-28T11:35:36;97092.78;;;4.78
48003;BMP280;33768;48.578;11.574;2023-02-28T11:38:42;97085.28;;;4.68
48003;BMP280;33768;48.578;11.574;2023-02-28T11:48:46;97077.66;;;4.18
48003;BMP280;33768;48.578;11.574;2023-02-28T12:05:24;97080.59;;;4.20
48003;BMP280;33768;48.578;11.574;2023-02-28T12:08:38;97064.97;;;4.24
48003;BMP280;33768;48.578;11.574;2023-02-28T12:11:56;97060.66;;;4.32
48003;BMP280;33768;48.578;11.574;2023-02-28T12:18:29;97065.03;;;4.64
48003;BMP280;33768;48.578;11.574;2023-02-28T12:22:13;97064.00;;;4.95
48003;BMP280;33768;48.578;11.574;2023-02-28T12:28:51;97057.91;;;5.20
48003;BMP280;33768;48.578;11.574;2023-02-28T12:32:09;97052.69;;;5.36
48003;BMP280;33768;48.578;11.574;2023-02-28T12:35:28;97065.88;;;5.28
48003;BMP280;33768;48.578;11.574;2023-02-28T12:38:58;97058.06;;;5.56
48003;BMP280;33768;48.578;11.574;2023-02-28T12:42:10;97051.53;;;5.67
48003;BMP280;33768;48.578;11.574;2023-02-28T12:45:53;97055.81;;;5.74
48003;BMP280;33768;48.578;11.574;2023-02-28T12:48:56;97051.41;;;5.57
48003;BMP280;33768;48.578;11.574;2023-02-28T12:52:03;97054.22;;;5.62
48003;BMP280;33768;48.578;11.574;2023-02-28T12:55:21;97048.69;;;5.76
48003;BMP280;33768;48.578;11.574;2023-02-28T12:58:58;97055.34;;;5.56
48003;BMP280;33768;48.578;11.574;2023-02-28T13:09:15;97053.66;;;5.58
48003;BMP280;33768;48.578;11.574;2023-02-28T13:12:20;97047.94;;;5.76
48003;BMP280;33768;48.578;11.574;2023-02-28T13:15:27;97039.28;;;5.72
48003;BMP280;33768;48.578;11.574;2023-02-28T13:18:36;97031.91;;;5.97
48003;BMP280;33768;48.578;11.574;2023-02-28T13:21:46;97039.41;;;6.13
48003;BMP280;33768;48.578;11.574;2023-02-28T13:24:55;97040.38;;;6.10
48003;BMP280;33768;48.578;11.574;2023-02-28T13:28:01;97029.44;;;5.99
48003;BMP280;33768;48.578;11.574;2023-02-28T13:31:07;97024.97;;;6.27
48003;BMP280;33768;48.578;11.574;2023-02-28T13:34:14;97036.97;;;6.15
48003;BMP280;33768;48.578;11.574;2023-02-28T13:40:32;97032.41;;;6.01
48003;BMP280;33768;48.578;11.574;2023-02-28T13:44:20;97033.28;;;5.62
48003;BMP280;33768;48.578;11.574;2023-02-28T13:50:40;97022.81;;;6.00
48003;BMP280;33768;48.578;11.574;2023-02-28T13:53:56;97029.44;;;6.30
48003;BMP280;33768;48.578;11.574;2023-02-28T14:01:29;97027.63;;;5.66
48003;BMP280;33768;48.578;11.574;2023-02-28T14:10:04;97033.25;;;6.13
48003;BMP280;33768;48.578;11.574;2023-02-28T14:19:47;97027.22;;;5.48
48003;BMP280;33768;48.578;11.574;2023-02-28T14:26:25;97033.00;;;5.35
48003;BMP280;33768;48.578;11.574;2023-02-28T14:37:04;97021.09;;;5.28
48003;BMP280;33768;48.578;11.574;2023-02-28T14:40:51;97014.97;;;5.07
48003;BMP280;33768;48.578;11.574;2023-02-28T14:44:27;97015.41;;;5.06
48003;BMP280;33768;48.578;11.574;2023-02-28T14:47:33;97025.00;;;5.27
48003;BMP280;33768;48.578;11.574;2023-02-28T15:25:43;97023.22;;;4.59
48003;BMP280;33768;48.578;11.574;2023-02-28T15:28:52;97033.00;;;4.57
48003;BMP280;33768;48.578;11.574;2023-02-28T15:32:07;97029.06;;;4.58
48003;BMP280;33768;48.578;11.574;2023-02-28T15:38:34;97033.03;;;4.42
48003;BMP280;33768;48.578;11.574;2023-02-28T15:41:38;97030.47;;;4.34
48003;BMP280;33768;48.578;11.574;2023-02-28T15:44:55;97034.41;;;4.18
48003;BMP280;33768;48.578;11.574;2023-02-28T15:52:18;97040.56;;;4.04
48003;BMP280;33768;48.578;11.574;2023-02-28T15:55:28;97053.44;;;3.95
48003;BMP280;33768;48.578;11.574;2023-02-28T15:58:35;97043.94;;;3.85
48003;BMP280;33768;48.578;11.574;2023-02-28T16:02:19;97040.13;;;3.77
48003;BMP280;33768;48.578;11.574;2023-02-28T16:05:40;97038.84;;;3.73
48003;BMP280;33768;48.578;11.574;2023-02-28T16:08:47;97060.31;;;3.68
48003;BMP280;33768;48.578;11.574;2023-02-28T16:11:58;97050.66;;;3.61
48003;BMP280;33768;48.578;11.574;2023-02-28T16:15:27;97054.44;;;3.55
48003;BMP280;33768;48.578;11.574;2023-02-28T16:18:40;97055.56;;;3.48
48003;BMP280;33768;48.578;11.574;2023-02-28T16:21:47;97051.56;;;3.44
48003;BMP280;33768;48.578;11.574;2023-02-28T16:25:13;97048.94;;;3.35
48003;BMP280;33768;48.578;11.574;2023-02-28T16:28:29;97056.03;;;3.33
48003;BMP280;33768;48.578;11.574;2023-02-28T16:31:37;97060.25;;;3.25
48003;BMP280;33768;48.578;11.574;2023-02-28T16:34:43;97056.16;;;3.15
48003;BMP280;33768;48.578;11.574;2023-02-28T16:37:47;97067.31;;;3.08
48003;BMP280;33768;48.578;11.574;2023-02-28T16:40:55;97060.19;;;2.96
48003;BMP280;33768;48.578;11.574;2023-02-28T16:44:00;97075.84;;;2.83
48003;BMP280;33768;48.578;11.574;2023-02-28T16:47:05;97073.59;;;2.82
48003;BMP280;33768;48.578;11.574;2023-02-28T16:50:15;97079.47;;;2.80
48003;BMP280;33768;48.578;11.574;2023-02-28T16:53:19;97077.69;;;2.78
48003;BMP280;33768;48.578;11.574;2023-02-28T16:56:25;97081.03;;;2.73
48003;BMP280;33768;48.578;11.574;2023-02-28T16:59:30;97083.31;;;2.65
48003;BMP280;33768;48.578;11.574;2023-02-28T17:02:34;97091.91;;;2.55
48003;BMP280;33768;48.578;11.574;2023-02-28T17:05:39;97103.34;;;2.41
48003;BMP280;33768;48.578;11.574;2023-02-28T17:08:44;97097.72;;;2.30
48003;BMP280;33768;48.578;11.574;2023-02-28T17:11:48;97102.25;;;2.16
48003;BMP280;33768;48.578;11.574;2023-02-28T17:14:52;97105.84;;;2.13
48003;BMP280;33768;48.578;11.574;2023-02-28T17:17:56;97106.75;;;2.10
48003;BMP280;33768;48.578;11.574;2023-02-28T17:21:01;97104.69;;;2.05
48003;BMP280;33768;48.578;11.574;2023-02-28T17:24:05;97102.75;;;1.96
48003;BMP280;33768;48.578;11.574;2023-02-28T17:27:12;97108.91;;;1.97
48003;BMP280;33768;48.578;11.574;2023-02-28T17:30:19;97114.91;;;1.83
48003;BMP280;33768;48.578;11.574;2023-02-28T17:33:24;97121.03;;;1.66
48003;BMP280;33768;48.578;11.574;2023-02-28T17:36:28;97129.28;;;1.54
48003;BMP280;33768;48.578;11.574;2023-02-28T17:39:33;97134.38;;;1.43
48003;BMP280;33768;48.578;11.574;2023-02-28T17:42:37;97133.78;;;1.48
48003;BMP280;33768;48.578;11.574;2023-02-28T17:59:55;97146.03;;;1.40
48003;BMP280;33768;48.578;11.574;2023-02-28T18:02:59;97144.84;;;1.32
48003;BMP280;33768;48.578;11.574;2023-02-28T18:06:04;97143.63;;;1.33
48003;BMP280;33768;48.578;11.574;2023-02-28T18:09:10;97140.19;;;1.32
48003;BMP280;33768;48.578;11.574;2023-02-28T18:12:14;97144.56;;;1.39
48003;BMP280;33768;48.578;11.574;2023-02-28T18:15:20;97142.13;;;1.41
48003;BMP280;33768;48.578;11.574;2023-02-28T18:18:24;97142.00;;;1.35
48003;BMP280;33768;48.578;11.574;2023-02-28T18:21:28;97137.53;;;1.41
48003;BMP280;33768;48.578;11.574;2023-02-28T18:24:33;97135.13;;;1.43
48003;BMP280;33768;48.578;11.574;2023-02-28T18:27:39;97131.97;;;1.45
48003;BMP280;33768;48.578;11.574;2023-02-28T18:30:43;97135.88;;;1.44
48003;BMP280;33768;48.578;11.574;2023-02-28T18:33:51;97138.72;;;1.40
48003;BMP280;33768;48.578;11.574;2023-02-28T18:36:56;97134.09;;;1.32
48003;BMP280;33768;48.578;11.574;2023-02-28T18:40:00;97136.47;;;1.30
48003;BMP280;33768;48.578;11.574;2023-02-28T18:43:05;97141.53;;;1.28
48003;BMP280;33768;48.578;11.574;2023-02-28T18:46:13;97133.78;;;1.21
48003;BMP280;33768;48.578;11.574;2023-02-28T18:49:18;97140.03;;;1.18
48003;BMP280;33768;48.578;11.574;2023-02-28T18:52:22;97125.69;;;1.12
48003;BMP280;33768;48.578;11.574;2023-02-28T18:55:27;97122.38;;;1.08
48003;BMP280;33768;48.578;11.574;2023-02-28T18:58:31;97137.94;;;1.04
48003;BMP280;33768;48.578;11.574;2023-02-28T19:01:36;97135.69;;;1.03
48003;BMP280;33768;48.578;11.574;2023-02-28T19:04:40;97134.03;;;0.96
48003;BMP280;33768;48.578;11.574;2023-02-28T19:07:47;97133.72;;;0.86
48003;BMP280;33768;48.578;11.574;2023-02-28T19:10:52;97118.63;;;0.79
48003;BMP280;33768;48.578;11.574;2023-02-28T19:13:56;97127.75;;;0.82
48003;BMP280;33768;48.578;11.574;2023-02-28T19:17:00;97128.06;;;0.84
48003;BMP280;33768;48.578;11.574;2023-02-28T19:20:05;97134.75;;;0.88
48003;BMP280;33768;48.578;11.574;2023-02-28T19:23:09;97129.56;;;0.93
48003;BMP280;33768;48.578;11.574;2023-02-28T19:26:21;97139.13;;;0.94
48003;BMP280;33768;48.578;11.574;2023-02-28T19:29:26;97133.75;;;0.94
48003;BMP280;33768;48.578;11.574;2023-02-28T19:32:30;97126.88;;;0.93
48003;BMP280;33768;48.578;11.574;2023-02-28T19:35:39;97130.16;;;0.97
48003;BMP280;33768;48.578;11.574;2023-02-28T19:38:43;97119.84;;;1.05
48003;BMP280;33768;48.578;11.574;2023-02-28T19:41:48;97122.25;;;1.12
48003;BMP280;33768;48.578;11.574;2023-02-28T19:44:52;97113.91;;;1.19
48003;BMP280;33768;48.578;11.574;2023-02-28T19:47:56;97121.06;;;1.22
48003;BMP280;33768;48.578;11.574;2023-02-28T19:51:03;97120.91;;;1.25
48003;BMP280;33768;48.578;11.574;2023-02-28T19:54:08;97128.81;;;1.28
48003;BMP280;33768;48.578;11.574;2023-02-28T19:57:13;97126.13;;;1.28
48003;BMP280;33768;48.578;11.574;2023-02-28T20:00:17;97127.97;;;1.31
48003;BMP280;33768;48.578;11.574;2023-02-28T20:03:22;97130.94;;;1.33
48003;BMP280;33768;48.578;11.574;2023-02-28T20:06:30;97133.78;;;1.30
48003;BMP280;33768;48.578;11.574;2023-02-28T20:09:34;97122.13;;;1.33
48003;BMP280;33768;48.578;11.574;2023-02-28T20:12:39;97130.19;;;1.33
48003;BMP280;33768;48.578;11.574;2023-02-28T20:15:43;97126.31;;;1.34
48003;BMP280;33768;48.578;11.574;2023-02-28T20:18:49;97127.66;;;1.29
48003;BMP280;33768;48.578;11.574;2023-02-28T20:21:54;97135.72;;;1.29
48003;BMP280;33768;48.578;11.574;2023-02-28T20:24:58;97146.31;;;1.33
48003;BMP280;33768;48.578;11.574;2023-02-28T20:28:02;97127.19;;;1.31
48003;BMP280;33768;48.578;11.574;2023-02-28T20:31:16;97126.91;;;1.29